sensor_id;sensor_type;location;lat;lon;timestamp;P1;durP1;ratioP1;P2;durP2;ratioP2
2320;SDS011;15376;48.540;9.268;2024-01-15T00:01:57;21.80;;;12.53;;
2320;SDS011;15376;48.540;9.268;2024-01-15T00:04:22;23.20;;;13.00;;
2320;SDS011;15376;48.540;9.268;2024-01-15T00:06:48;23.03;;;13.73;;
2320;SDS011;15376;48.540;9.268;2024-01-15T00:09:14;21.43;;;11.53;;
2320;SDS011;15376;48.540;9.268;2024-01-15T00:11:39;21.83;;;12.97;;
2320;SDS011;15376;48.540;9.268;2024-01-15T00:14:05;22.97;;;12.37;;
2320;SDS011;15376;48.540;9.268;2024-01-15T00:16:30;25.60;;;13.20;;
2320;SDS011;15376;48.540;9.268;2024-01-15T00:18:56;20.57;;;13.00;;
2320;SDS011;15376;48.540;9.268;2024-01-15T00:21:21;21.57;;;13.47;;
2320;SDS011;15376;48.540;9.268;2024-01-15T00:23:46;18.33;;;11.57;;
2320;SDS011;15376;48.540;9.268;2024-01-15T00:26:12;21.00;;;12.93;;
2320;SDS011;15376;48.540;9.268;2024-01-15T00:28:37;18.80;;;12.23;;
2320;SDS011;15376;48.540;9.268;2024-01-15T00:31:06;20.20;;;12.13;;
2320;SDS011;15376;48.540;9.268;2024-01-15T00:33:32;18.47;;;11.73;;
2320;SDS011;15376;48.540;9.268;2024-01-15T00:35:57;19.93;;;12.13;;
2320;SDS011;15376;48.540;9.268;2024-01-15T00:38:23;21.13;;;12.27;;
2320;SDS011;15376;48.540;9.268;2024-01-15T00:40:48;16.90;;;11.30;;
2320;SDS011;15376;48.540;9.268;2024-01-15T00:43:13;21.00;;;13.50;;
2320;SDS011;15376;48.540;9.268;2024-01-15T00:45:39;21.37;;;11.97;;
2320;SDS011;15376;48.540;9.268;2024-01-15T00:48:05;21.57;;;12.13;;
2320;SDS011;15376;48.540;9.268;2024-01-15T00:50:30;27.53;;;13.20;;
2320;SDS011;15376;48.540;9.268;2024-01-15T00:52:56;20.50;;;12.17;;
2320;SDS011;15376;48.540;9.268;2024-01-15T00:55:21;24.73;;;14.33;;
2320;SDS011;15376;48.540;9.268;2024-01-15T00:57:46;22.23;;;13.67;;
2320;SDS011;15376;48.540;9.268;2024-01-15T01:00:12;22.27;;;13.50;;
2320;SDS011;15376;48.540;9.268;2024-01-15T01:02:37;20.37;;;10.80;;
2320;SDS011;15376;48.540;9.268;2024-01-15T01:05:03;24.83;;;13.40;;
2320;SDS011;15376;48.540;9.268;2024-01-15T01:07:29;18.43;;;11.13;;
2320;SDS011;15376;48.540;9.268;2024-01-15T01:09:54;15.70;;;10.47;;
2320;SDS011;15376;48.540;9.268;2024-01-15T01:12:20;20.40;;;13.80;;
2320;SDS011;15376;48.540;9.268;2024-01-15T01:14:45;18.20;;;10.90;;
2320;SDS011;15376;48.540;9.268;2024-01-15T01:17:10;25.23;;;11.33;;
2320;SDS011;15376;48.540;9.268;2024-01-15T01:19:36;23.60;;;12.40;;
2320;SDS011;15376;48.540;9.268;2024-01-15T01:22:01;22.70;;;12.73;;
2320;SDS011;15376;48.540;9.268;2024-01-15T01:24:26;19.87;;;11.93;;
2320;SDS011;15376;48.540;9.268;2024-01-15T01:26:52;17.20;;;11.33;;
2320;SDS011;15376;48.540;9.268;2024-01-15T01:29:17;20.50;;;11.53;;
2320;SDS011;15376;48.540;9.268;2024-01-15T01:31:46;20.13;;;10.93;;
2320;SDS011;15376;48.540;9.268;2024-01-15T01:34:14;16.07;;;10.60;;
2320;SDS011;15376;48.540;9.268;2024-01-15T01:36:41;20.77;;;10.53;;
2320;SDS011;15376;48.540;9.268;2024-01-15T01:39:07;21.00;;;11.57;;
2320;SDS011;15376;48.540;9.268;2024-01-15T01:41:32;20.60;;;11.67;;
2320;SDS011;15376;48.540;9.268;2024-01-15T01:43:58;20.43;;;11.63;;
2320;SDS011;15376;48.540;9.268;2024-01-15T01:46:23;19.53;;;12.47;;
2320;SDS011;15376;48.540;9.268;2024-01-15T01:48:51;20.23;;;11.80;;
2320;SDS011;15376;48.540;9.268;2024-01-15T01:51:17;21.40;;;11.03;;
2320;SDS011;15376;48.540;9.268;2024-01-15T01:53:43;17.60;;;10.30;;
2320;SDS011;15376;48.540;9.268;2024-01-15T01:56:10;17.07;;;9.33;;
2320;SDS011;15376;48.540;9.268;2024-01-15T01:58:36;19.33;;;12.00;;
2320;SDS011;15376;48.540;9.268;2024-01-15T02:01:02;15.73;;;10.17;;
2320;SDS011;15376;48.540;9.268;2024-01-15T02:03:28;19.23;;;10.40;;
2320;SDS011;15376;48.540;9.268;2024-01-15T02:05:55;20.37;;;10.70;;
2320;SDS011;15376;48.540;9.268;2024-01-15T02:08:21;18.67;;;10.67;;
2320;SDS011;15376;48.540;9.268;2024-01-15T02:10:47;23.77;;;12.50;;
2320;SDS011;15376;48.540;9.268;2024-01-15T02:13:12;19.83;;;10.47;;
2320;SDS011;15376;48.540;9.268;2024-01-15T02:15:37;14.53;;;8.73;;
2320;SDS011;15376;48.540;9.268;2024-01-15T02:18:04;21.00;;;10.87;;
2320;SDS011;15376;48.540;9.268;2024-01-15T02:20:31;19.53;;;9.50;;
2320;SDS011;15376;48.540;9.268;2024-01-15T02:25:31;17.20;;;10.60;;
2320;SDS011;15376;48.540;9.268;2024-01-15T02:27:57;14.90;;;9.63;;
2320;SDS011;15376;48.540;9.268;2024-01-15T02:30:23;19.60;;;11.30;;
2320;SDS011;15376;48.540;9.268;2024-01-15T02:32:50;20.17;;;11.80;;
2320;SDS011;15376;48.540;9.268;2024-01-15T02:35:15;18.23;;;11.17;;
2320;SDS011;15376;48.540;9.268;2024-01-15T02:37:41;13.10;;;9.40;;
2320;SDS011;15376;48.540;9.268;2024-01-15T02:40:06;19.90;;;11.03;;
2320;SDS011;15376;48.540;9.268;2024-01-15T02:42:32;19.33;;;9.60;;
2320;SDS011;15376;48.540;9.268;2024-01-15T02:44:58;17.53;;;10.93;;
2320;SDS011;15376;48.540;9.268;2024-01-15T02:47:23;19.67;;;11.27;;
2320;SDS011;15376;48.540;9.268;2024-01-15T02:49:48;18.20;;;10.13;;
2320;SDS011;15376;48.540;9.268;2024-01-15T02:52:14;18.80;;;9.97;;
2320;SDS011;15376;48.540;9.268;2024-01-15T02:54:39;18.47;;;9.40;;
2320;SDS011;15376;48.540;9.268;2024-01-15T02:57:04;14.67;;;8.93;;
2320;SDS011;15376;48.540;9.268;2024-01-15T02:59:29;15.20;;;8.70;;
2320;SDS011;15376;48.540;9.268;2024-01-15T03:01:55;19.60;;;9.83;;
2320;SDS011;15376;48.540;9.268;2024-01-15T03:04:20;15.50;;;8.80;;
2320;SDS011;15376;48.540;9.268;2024-01-15T03:06:45;17.83;;;10.47;;
2320;SDS011;15376;48.540;9.268;2024-01-15T03:09:11;14.80;;;9.80;;
2320;SDS011;15376;48.540;9.268;2024-01-15T03:11:37;21.27;;;10.13;;
2320;SDS011;15376;48.540;9.268;2024-01-15T03:14:03;18.60;;;10.80;;
2320;SDS011;15376;48.540;9.268;2024-01-15T03:16:29;18.77;;;10.57;;
2320;SDS011;15376;48.540;9.268;2024-01-15T03:18:54;23.70;;;10.30;;
2320;SDS011;15376;48.540;9.268;2024-01-15T03:21:19;14.23;;;8.77;;
2320;SDS011;15376;48.540;9.268;2024-01-15T03:23:45;18.27;;;8.90;;
2320;SDS011;15376;48.540;9.268;2024-01-15T03:26:10;20.97;;;9.53;;
2320;SDS011;15376;48.540;9.268;2024-01-15T03:28:35;18.93;;;9.70;;
2320;SDS011;15376;48.540;9.268;2024-01-15T03:31:01;15.30;;;8.93;;
2320;SDS011;15376;48.540;9.268;2024-01-15T03:33:26;14.97;;;9.50;;
2320;SDS011;15376;48.540;9.268;2024-01-15T03:35:51;17.43;;;10.53;;
2320;SDS011;15376;48.540;9.268;2024-01-15T03:38:17;18.63;;;10.23;;
2320;SDS011;15376;48.540;9.268;2024-01-15T03:40:42;17.03;;;9.30;;
2320;SDS011;15376;48.540;9.268;2024-01-15T03:43:07;18.60;;;10.03;;
2320;SDS011;15376;48.540;9.268;2024-01-15T03:45:33;17.43;;;10.57;;
2320;SDS011;15376;48.540;9.268;2024-01-15T03:47:58;15.37;;;8.10;;
2320;SDS011;15376;48.540;9.268;2024-01-15T03:50:23;15.30;;;8.67;;
2320;SDS011;15376;48.540;9.268;2024-01-15T03:52:49;17.67;;;9.80;;
2320;SDS011;15376;48.540;9.268;2024-01-15T03:55:14;16.50;;;9.43;;
2320;SDS011;15376;48.540;9.268;2024-01-15T03:57:40;16.00;;;8.80;;
2320;SDS011;15376;48.540;9.268;2024-01-15T04:00:06;15.00;;;9.80;;
2320;SDS011;15376;48.540;9.268;2024-01-15T04:02:32;15.23;;;9.80;;
2320;SDS011;15376;48.540;9.268;2024-01-15T04:04:57;25.00;;;10.43;;
2320;SDS011;15376;48.540;9.268;2024-01-15T04:07:23;19.77;;;10.00;;
2320;SDS011;15376;48.540;9.268;2024-01-15T04:09:48;20.30;;;10.47;;
2320;SDS011;15376;48.540;9.268;2024-01-15T04:12:13;18.37;;;11.70;;
2320;SDS011;15376;48.540;9.268;2024-01-15T04:14:39;20.73;;;11.73;;
2320;SDS011;15376;48.540;9.268;2024-01-15T04:17:04;20.40;;;11.47;;
2320;SDS011;15376;48.540;9.268;2024-01-15T04:19:29;18.97;;;9.83;;
2320;SDS011;15376;48.540;9.268;2024-01-15T04:21:55;21.57;;;9.90;;
2320;SDS011;15376;48.540;9.268;2024-01-15T04:24:20;20.60;;;11.90;;
2320;SDS011;15376;48.540;9.268;2024-01-15T04:26:46;18.03;;;10.10;;
2320;SDS011;15376;48.540;9.268;2024-01-15T04:29:12;18.30;;;10.30;;
2320;SDS011;15376;48.540;9.268;2024-01-15T04:31:37;20.97;;;10.90;;
2320;SDS011;15376;48.540;9.268;2024-01-15T04:34:03;18.03;;;10.10;;
2320;SDS011;15376;48.540;9.268;2024-01-15T04:36:28;19.37;;;11.23;;
2320;SDS011;15376;48.540;9.268;2024-01-15T04:38:53;20.57;;;10.70;;
2320;SDS011;15376;48.540;9.268;2024-01-15T04:41:19;15.40;;;10.60;;
2320;SDS011;15376;48.540;9.268;2024-01-15T04:43:44;21.10;;;9.67;;
2320;SDS011;15376;48.540;9.268;2024-01-15T04:46:10;19.13;;;10.50;;
2320;SDS011;15376;48.540;9.268;2024-01-15T04:48:36;19.67;;;11.93;;
2320;SDS011;15376;48.540;9.268;2024-01-15T04:51:03;24.17;;;11.27;;
2320;SDS011;15376;48.540;9.268;2024-01-15T04:53:29;16.00;;;10.33;;
2320;SDS011;15376;48.540;9.268;2024-01-15T04:55:55;21.30;;;12.50;;
2320;SDS011;15376;48.540;9.268;2024-01-15T04:58:20;18.00;;;10.27;;
2320;SDS011;15376;48.540;9.268;2024-01-15T05:00:45;15.47;;;10.77;;
2320;SDS011;15376;48.540;9.268;2024-01-15T05:03:11;16.50;;;10.90;;
2320;SDS011;15376;48.540;9.268;2024-01-15T05:05:36;18.53;;;10.20;;
2320;SDS011;15376;48.540;9.268;2024-01-15T05:08:01;22.90;;;11.30;;
2320;SDS011;15376;48.540;9.268;2024-01-15T05:10:27;21.50;;;11.17;;
2320;SDS011;15376;48.540;9.268;2024-01-15T05:12:53;17.93;;;11.20;;
2320;SDS011;15376;48.540;9.268;2024-01-15T05:15:18;20.30;;;12.33;;
2320;SDS011;15376;48.540;9.268;2024-01-15T05:17:43;19.07;;;11.87;;
2320;SDS011;15376;48.540;9.268;2024-01-15T05:20:09;18.47;;;10.90;;
2320;SDS011;15376;48.540;9.268;2024-01-15T05:22:34;20.60;;;11.53;;
2320;SDS011;15376;48.540;9.268;2024-01-15T05:25:00;15.53;;;9.43;;
2320;SDS011;15376;48.540;9.268;2024-01-15T05:27:34;18.50;;;11.53;;
2320;SDS011;15376;48.540;9.268;2024-01-15T05:30:00;17.20;;;8.97;;
2320;SDS011;15376;48.540;9.268;2024-01-15T05:32:25;22.23;;;10.87;;
2320;SDS011;15376;48.540;9.268;2024-01-15T05:34:50;18.33;;;10.87;;
2320;SDS011;15376;48.540;9.268;2024-01-15T05:37:16;22.10;;;11.30;;
2320;SDS011;15376;48.540;9.268;2024-01-15T05:39:41;16.97;;;10.30;;
2320;SDS011;15376;48.540;9.268;2024-01-15T05:42:06;20.17;;;11.60;;
2320;SDS011;15376;48.540;9.268;2024-01-15T05:44:31;21.07;;;11.50;;
2320;SDS011;15376;48.540;9.268;2024-01-15T05:46:57;16.07;;;8.23;;
2320;SDS011;15376;48.540;9.268;2024-01-15T05:49:22;18.70;;;9.80;;
2320;SDS011;15376;48.540;9.268;2024-01-15T05:51:48;17.33;;;9.87;;
2320;SDS011;15376;48.540;9.268;2024-01-15T05:54:13;18.97;;;11.37;;
2320;SDS011;15376;48.540;9.268;2024-01-15T05:56:38;17.37;;;11.67;;
2320;SDS011;15376;48.540;9.268;2024-01-15T05:59:04;19.10;;;11.40;;
2320;SDS011;15376;48.540;9.268;2024-01-15T06:01:29;13.73;;;8.80;;
2320;SDS011;15376;48.540;9.268;2024-01-15T06:03:55;17.10;;;10.50;;
2320;SDS011;15376;48.540;9.268;2024-01-15T06:06:20;15.83;;;9.77;;
2320;SDS011;15376;48.540;9.268;2024-01-15T06:08:45;19.87;;;10.90;;
2320;SDS011;15376;48.540;9.268;2024-01-15T06:11:11;15.90;;;9.83;;
2320;SDS011;15376;48.540;9.268;2024-01-15T06:13:36;16.87;;;10.60;;
2320;SDS011;15376;48.540;9.268;2024-01-15T06:16:01;16.40;;;10.73;;
2320;SDS011;15376;48.540;9.268;2024-01-15T06:18:27;17.00;;;10.90;;
2320;SDS011;15376;48.540;9.268;2024-01-15T06:20:52;16.40;;;10.80;;
2320;SDS011;15376;48.540;9.268;2024-01-15T06:23:18;16.83;;;9.60;;
2320;SDS011;15376;48.540;9.268;2024-01-15T06:25:43;17.57;;;11.23;;
2320;SDS011;15376;48.540;9.268;2024-01-15T06:28:08;20.50;;;10.77;;
2320;SDS011;15376;48.540;9.268;2024-01-15T06:30:34;19.43;;;12.17;;
2320;SDS011;15376;48.540;9.268;2024-01-15T06:33:00;19.90;;;12.33;;
2320;SDS011;15376;48.540;9.268;2024-01-15T06:35:25;19.63;;;12.20;;
2320;SDS011;15376;48.540;9.268;2024-01-15T06:37:51;15.53;;;10.83;;
2320;SDS011;15376;48.540;9.268;2024-01-15T06:40:16;17.83;;;11.03;;
2320;SDS011;15376;48.540;9.268;2024-01-15T06:42:41;17.70;;;11.93;;
2320;SDS011;15376;48.540;9.268;2024-01-15T06:45:07;17.30;;;11.00;;
2320;SDS011;15376;48.540;9.268;2024-01-15T06:47:33;17.37;;;11.87;;
2320;SDS011;15376;48.540;9.268;2024-01-15T06:49:58;18.87;;;12.27;;
2320;SDS011;15376;48.540;9.268;2024-01-15T06:52:23;16.40;;;9.43;;
2320;SDS011;15376;48.540;9.268;2024-01-15T06:54:49;18.40;;;10.20;;
2320;SDS011;15376;48.540;9.268;2024-01-15T06:57:14;17.63;;;10.93;;
2320;SDS011;15376;48.540;9.268;2024-01-15T06:59:39;15.53;;;11.60;;
2320;SDS011;15376;48.540;9.268;2024-01-15T07:02:05;20.63;;;10.83;;
2320;SDS011;15376;48.540;9.268;2024-01-15T07:04:31;13.67;;;9.10;;
2320;SDS011;15376;48.540;9.268;2024-01-15T07:06:56;15.03;;;9.53;;
2320;SDS011;15376;48.540;9.268;2024-01-15T07:09:22;15.33;;;10.20;;
2320;SDS011;15376;48.540;9.268;2024-01-15T07:11:47;21.90;;;10.63;;
2320;SDS011;15376;48.540;9.268;2024-01-15T07:14:13;16.47;;;10.20;;
2320;SDS011;15376;48.540;9.268;2024-01-15T07:16:39;17.70;;;9.50;;
2320;SDS011;15376;48.540;9.268;2024-01-15T07:19:04;18.40;;;10.80;;
2320;SDS011;15376;48.540;9.268;2024-01-15T07:21:30;15.53;;;9.57;;
2320;SDS011;15376;48.540;9.268;2024-01-15T07:23:55;15.97;;;9.97;;
2320;SDS011;15376;48.540;9.268;2024-01-15T07:26:20;13.97;;;9.63;;
2320;SDS011;15376;48.540;9.268;2024-01-15T07:28:46;17.80;;;10.30;;
2320;SDS011;15376;48.540;9.268;2024-01-15T07:31:12;15.13;;;11.00;;
2320;SDS011;15376;48.540;9.268;2024-01-15T07:33:37;14.43;;;9.87;;
2320;SDS011;15376;48.540;9.268;2024-01-15T07:36:02;10.57;;;6.30;;
2320;SDS011;15376;48.540;9.268;2024-01-15T07:38:28;15.00;;;9.10;;
2320;SDS011;15376;48.540;9.268;2024-01-15T07:40:53;13.60;;;9.97;;
2320;SDS011;15376;48.540;9.268;2024-01-15T07:43:19;13.83;;;9.47;;
2320;SDS011;15376;48.540;9.268;2024-01-15T07:45:44;18.30;;;10.80;;
2320;SDS011;15376;48.540;9.268;2024-01-15T07:48:10;14.20;;;8.47;;
2320;SDS011;15376;48.540;9.268;2024-01-15T07:50:35;19.17;;;9.57;;
2320;SDS011;15376;48.540;9.268;2024-01-15T07:53:01;15.80;;;10.10;;
2320;SDS011;15376;48.540;9.268;2024-01-15T07:55:26;13.53;;;9.00;;
2320;SDS011;15376;48.540;9.268;2024-01-15T07:57:52;17.53;;;9.00;;
2320;SDS011;15376;48.540;9.268;2024-01-15T08:00:18;16.80;;;9.10;;
2320;SDS011;15376;48.540;9.268;2024-01-15T08:02:44;12.07;;;8.50;;
2320;SDS011;15376;48.540;9.268;2024-01-15T08:05:09;11.33;;;7.67;;
2320;SDS011;15376;48.540;9.268;2024-01-15T08:07:34;12.03;;;8.07;;
2320;SDS011;15376;48.540;9.268;2024-01-15T08:10:00;11.33;;;7.67;;
2320;SDS011;15376;48.540;9.268;2024-01-15T08:12:25;13.60;;;9.00;;
2320;SDS011;15376;48.540;9.268;2024-01-15T08:14:51;10.87;;;6.67;;
2320;SDS011;15376;48.540;9.268;2024-01-15T08:17:16;9.63;;;6.97;;
2320;SDS011;15376;48.540;9.268;2024-01-15T08:19:42;9.87;;;6.53;;
2320;SDS011;15376;48.540;9.268;2024-01-15T08:22:07;10.40;;;7.87;;
2320;SDS011;15376;48.540;9.268;2024-01-15T08:24:33;9.37;;;7.33;;
2320;SDS011;15376;48.540;9.268;2024-01-15T08:26:58;11.90;;;6.77;;
2320;SDS011;15376;48.540;9.268;2024-01-15T08:29:24;10.87;;;6.03;;
2320;SDS011;15376;48.540;9.268;2024-01-15T08:31:49;10.97;;;7.30;;
2320;SDS011;15376;48.540;9.268;2024-01-15T08:34:15;9.23;;;7.33;;
2320;SDS011;15376;48.540;9.268;2024-01-15T08:36:41;12.53;;;6.63;;
2320;SDS011;15376;48.540;9.268;2024-01-15T08:39:06;10.03;;;7.27;;
2320;SDS011;15376;48.540;9.268;2024-01-15T08:41:34;11.07;;;7.10;;
2320;SDS011;15376;48.540;9.268;2024-01-15T08:43:59;11.07;;;5.87;;
2320;SDS011;15376;48.540;9.268;2024-01-15T08:46:25;12.87;;;6.23;;
2320;SDS011;15376;48.540;9.268;2024-01-15T08:48:50;11.47;;;5.93;;
2320;SDS011;15376;48.540;9.268;2024-01-15T08:51:16;8.60;;;6.00;;
2320;SDS011;15376;48.540;9.268;2024-01-15T08:53:43;10.27;;;6.37;;
2320;SDS011;15376;48.540;9.268;2024-01-15T08:56:08;5.43;;;4.90;;
2320;SDS011;15376;48.540;9.268;2024-01-15T08:58:34;13.50;;;6.50;;
2320;SDS011;15376;48.540;9.268;2024-01-15T09:01:00;9.10;;;6.33;;
2320;SDS011;15376;48.540;9.268;2024-01-15T09:03:25;6.20;;;5.60;;
2320;SDS011;15376;48.540;9.268;2024-01-15T09:05:50;10.77;;;6.20;;
2320;SDS011;15376;48.540;9.268;2024-01-15T09:08:16;7.43;;;5.10;;
2320;SDS011;15376;48.540;9.268;2024-01-15T09:10:41;13.40;;;6.00;;
2320;SDS011;15376;48.540;9.268;2024-01-15T09:13:06;7.20;;;5.20;;
2320;SDS011;15376;48.540;9.268;2024-01-15T09:15:33;9.00;;;5.73;;
2320;SDS011;15376;48.540;9.268;2024-01-15T09:17:58;7.60;;;4.50;;
2320;SDS011;15376;48.540;9.268;2024-01-15T09:20:24;12.33;;;5.53;;
2320;SDS011;15376;48.540;9.268;2024-01-15T09:22:51;4.80;;;4.23;;
2320;SDS011;15376;48.540;9.268;2024-01-15T09:25:16;8.47;;;4.63;;
2320;SDS011;15376;48.540;9.268;2024-01-15T09:27:41;5.43;;;4.43;;
2320;SDS011;15376;48.540;9.268;2024-01-15T09:30:07;7.40;;;4.47;;
2320;SDS011;15376;48.540;9.268;2024-01-15T09:32:33;7.17;;;4.30;;
2320;SDS011;15376;48.540;9.268;2024-01-15T09:34:58;8.73;;;5.13;;
2320;SDS011;15376;48.540;9.268;2024-01-15T09:37:24;6.10;;;4.87;;
2320;SDS011;15376;48.540;9.268;2024-01-15T09:39:49;6.00;;;4.10;;
2320;SDS011;15376;48.540;9.268;2024-01-15T09:42:15;3.83;;;3.50;;
2320;SDS011;15376;48.540;9.268;2024-01-15T09:44:40;5.30;;;3.77;;
2320;SDS011;15376;48.540;9.268;2024-01-15T09:47:06;9.80;;;3.73;;
2320;SDS011;15376;48.540;9.268;2024-01-15T09:49:33;4.57;;;4.17;;
2320;SDS011;15376;48.540;9.268;2024-01-15T09:51:58;4.17;;;3.77;;
2320;SDS011;15376;48.540;9.268;2024-01-15T09:54:25;5.73;;;4.20;;
2320;SDS011;15376;48.540;9.268;2024-01-15T09:56:51;5.60;;;4.13;;
2320;SDS011;15376;48.540;9.268;2024-01-15T09:59:16;4.83;;;3.67;;
2320;SDS011;15376;48.540;9.268;2024-01-15T10:01:43;6.50;;;4.00;;
2320;SDS011;15376;48.540;9.268;2024-01-15T10:04:10;7.00;;;3.87;;
2320;SDS011;15376;48.540;9.268;2024-01-15T10:06:38;4.60;;;3.57;;
2320;SDS011;15376;48.540;9.268;2024-01-15T10:09:07;3.73;;;3.43;;
2320;SDS011;15376;48.540;9.268;2024-01-15T10:11:33;4.03;;;3.60;;
2320;SDS011;15376;48.540;9.268;2024-01-15T10:13:58;4.93;;;3.53;;
2320;SDS011;15376;48.540;9.268;2024-01-15T10:16:23;3.60;;;3.20;;
2320;SDS011;15376;48.540;9.268;2024-01-15T10:18:49;5.73;;;3.93;;
2320;SDS011;15376;48.540;9.268;2024-01-15T10:21:14;6.97;;;3.60;;
2320;SDS011;15376;48.540;9.268;2024-01-15T10:23:41;3.97;;;3.03;;
2320;SDS011;15376;48.540;9.268;2024-01-15T10:26:06;4.33;;;3.47;;
2320;SDS011;15376;48.540;9.268;2024-01-15T10:28:31;7.27;;;5.00;;
2320;SDS011;15376;48.540;9.268;2024-01-15T10:30:58;6.87;;;3.93;;
2320;SDS011;15376;48.540;9.268;2024-01-15T10:33:26;6.83;;;3.63;;
2320;SDS011;15376;48.540;9.268;2024-01-15T10:35:59;7.33;;;3.90;;
2320;SDS011;15376;48.540;9.268;2024-01-15T10:38:25;4.40;;;3.20;;
2320;SDS011;15376;48.540;9.268;2024-01-15T10:40:51;4.77;;;4.07;;
2320;SDS011;15376;48.540;9.268;2024-01-15T10:43:18;6.90;;;3.40;;
2320;SDS011;15376;48.540;9.268;2024-01-15T10:45:47;3.60;;;3.30;;
2320;SDS011;15376;48.540;9.268;2024-01-15T10:48:14;4.00;;;3.60;;
2320;SDS011;15376;48.540;9.268;2024-01-15T10:50:41;3.27;;;2.97;;
2320;SDS011;15376;48.540;9.268;2024-01-15T10:53:07;9.10;;;4.30;;
2320;SDS011;15376;48.540;9.268;2024-01-15T10:55:35;6.23;;;3.30;;
2320;SDS011;15376;48.540;9.268;2024-01-15T10:58:02;4.37;;;3.00;;
2320;SDS011;15376;48.540;9.268;2024-01-15T11:00:28;3.00;;;2.57;;
2320;SDS011;15376;48.540;9.268;2024-01-15T11:02:54;2.70;;;2.37;;
2320;SDS011;15376;48.540;9.268;2024-01-15T11:05:20;3.07;;;2.80;;
2320;SDS011;15376;48.540;9.268;2024-01-15T11:07:47;4.30;;;2.43;;
2320;SDS011;15376;48.540;9.268;2024-01-15T11:13:14;3.50;;;2.70;;
2320;SDS011;15376;48.540;9.268;2024-01-15T11:16:05;3.70;;;2.70;;
2320;SDS011;15376;48.540;9.268;2024-01-15T11:18:36;2.70;;;2.50;;
2320;SDS011;15376;48.540;9.268;2024-01-15T11:26:30;9.93;;;3.83;;
2320;SDS011;15376;48.540;9.268;2024-01-15T11:28:56;3.00;;;2.70;;
2320;SDS011;15376;48.540;9.268;2024-01-15T11:34:12;4.03;;;3.67;;
2320;SDS011;15376;48.540;9.268;2024-01-15T11:37:20;5.03;;;3.00;;
2320;SDS011;15376;48.540;9.268;2024-01-15T11:41:54;4.83;;;3.63;;
2320;SDS011;15376;48.540;9.268;2024-01-15T11:44:20;4.97;;;4.37;;
2320;SDS011;15376;48.540;9.268;2024-01-15T11:46:51;4.07;;;3.33;;
2320;SDS011;15376;48.540;9.268;2024-01-15T11:49:36;6.40;;;4.73;;
2320;SDS011;15376;48.540;9.268;2024-01-15T11:52:36;4.17;;;3.70;;
2320;SDS011;15376;48.540;9.268;2024-01-15T11:57:57;5.00;;;3.47;;
2320;SDS011;15376;48.540;9.268;2024-01-15T12:00:25;4.30;;;3.30;;
2320;SDS011;15376;48.540;9.268;2024-01-15T12:02:51;4.43;;;3.57;;
2320;SDS011;15376;48.540;9.268;2024-01-15T12:05:17;4.57;;;3.20;;
2320;SDS011;15376;48.540;9.268;2024-01-15T12:07:44;7.10;;;4.30;;
2320;SDS011;15376;48.540;9.268;2024-01-15T12:10:11;5.70;;;4.00;;
2320;SDS011;15376;48.540;9.268;2024-01-15T12:15:28;11.93;;;4.63;;
2320;SDS011;15376;48.540;9.268;2024-01-15T12:17:58;3.57;;;3.27;;
2320;SDS011;15376;48.540;9.268;2024-01-15T12:20:25;6.80;;;3.70;;
2320;SDS011;15376;48.540;9.268;2024-01-15T12:22:51;4.10;;;3.80;;
2320;SDS011;15376;48.540;9.268;2024-01-15T12:25:16;5.67;;;4.13;;
2320;SDS011;15376;48.540;9.268;2024-01-15T12:27:41;6.70;;;4.43;;
2320;SDS011;15376;48.540;9.268;2024-01-15T12:30:09;7.93;;;2.93;;
2320;SDS011;15376;48.540;9.268;2024-01-15T12:32:36;3.63;;;3.33;;
2320;SDS011;15376;48.540;9.268;2024-01-15T12:35:01;4.33;;;3.70;;
2320;SDS011;15376;48.540;9.268;2024-01-15T12:37:27;5.97;;;3.60;;
2320;SDS011;15376;48.540;9.268;2024-01-15T12:39:54;5.40;;;3.93;;
2320;SDS011;15376;48.540;9.268;2024-01-15T12:42:20;4.53;;;3.83;;
2320;SDS011;15376;48.540;9.268;2024-01-15T12:44:46;6.33;;;4.60;;
2320;SDS011;15376;48.540;9.268;2024-01-15T12:47:12;8.73;;;4.30;;
2320;SDS011;15376;48.540;9.268;2024-01-15T12:49:38;7.60;;;4.20;;
2320;SDS011;15376;48.540;9.268;2024-01-15T12:52:07;5.00;;;4.10;;
2320;SDS011;15376;48.540;9.268;2024-01-15T12:54:33;4.03;;;3.70;;
2320;SDS011;15376;48.540;9.268;2024-01-15T12:56:59;11.53;;;4.20;;
2320;SDS011;15376;48.540;9.268;2024-01-15T12:59:24;6.90;;;4.50;;
2320;SDS011;15376;48.540;9.268;2024-01-15T13:01:50;5.43;;;4.27;;
2320;SDS011;15376;48.540;9.268;2024-01-15T13:04:21;6.17;;;4.73;;
2320;SDS011;15376;48.540;9.268;2024-01-15T13:06:50;9.30;;;4.60;;
2320;SDS011;15376;48.540;9.268;2024-01-15T13:09:16;5.50;;;4.47;;
2320;SDS011;15376;48.540;9.268;2024-01-15T13:11:43;4.87;;;3.70;;
2320;SDS011;15376;48.540;9.268;2024-01-15T13:14:12;8.47;;;5.97;;
2320;SDS011;15376;48.540;9.268;2024-01-15T13:16:39;7.47;;;4.20;;
2320;SDS011;15376;48.540;9.268;2024-01-15T13:19:10;7.87;;;5.13;;
2320;SDS011;15376;48.540;9.268;2024-01-15T13:21:40;9.23;;;5.40;;
2320;SDS011;15376;48.540;9.268;2024-01-15T13:24:06;5.50;;;4.90;;
2320;SDS011;15376;48.540;9.268;2024-01-15T13:26:34;6.23;;;5.27;;
2320;SDS011;15376;48.540;9.268;2024-01-15T13:29:02;6.40;;;5.10;;
2320;SDS011;15376;48.540;9.268;2024-01-15T13:31:29;6.43;;;5.83;;
2320;SDS011;15376;48.540;9.268;2024-01-15T13:33:54;7.37;;;5.77;;
2320;SDS011;15376;48.540;9.268;2024-01-15T13:36:21;8.83;;;5.90;;
2320;SDS011;15376;48.540;9.268;2024-01-15T13:38:48;8.80;;;6.30;;
2320;SDS011;15376;48.540;9.268;2024-01-15T13:41:17;10.20;;;6.50;;
2320;SDS011;15376;48.540;9.268;2024-01-15T13:43:49;9.03;;;6.20;;
2320;SDS011;15376;48.540;9.268;2024-01-15T13:46:16;9.77;;;6.43;;
2320;SDS011;15376;48.540;9.268;2024-01-15T13:48:42;12.60;;;6.60;;
2320;SDS011;15376;48.540;9.268;2024-01-15T13:51:07;7.90;;;5.23;;
2320;SDS011;15376;48.540;9.268;2024-01-15T13:53:33;5.00;;;4.47;;
2320;SDS011;15376;48.540;9.268;2024-01-15T13:55:58;7.50;;;5.33;;
2320;SDS011;15376;48.540;9.268;2024-01-15T13:58:24;8.17;;;6.43;;
2320;SDS011;15376;48.540;9.268;2024-01-15T14:00:50;8.77;;;5.90;;
2320;SDS011;15376;48.540;9.268;2024-01-15T14:03:16;10.90;;;6.93;;
2320;SDS011;15376;48.540;9.268;2024-01-15T14:05:41;7.63;;;5.87;;
2320;SDS011;15376;48.540;9.268;2024-01-15T14:08:06;13.50;;;8.87;;
2320;SDS011;15376;48.540;9.268;2024-01-15T14:10:32;13.70;;;7.30;;
2320;SDS011;15376;48.540;9.268;2024-01-15T14:12:58;9.47;;;6.33;;
2320;SDS011;15376;48.540;9.268;2024-01-15T14:15:23;11.90;;;7.30;;
2320;SDS011;15376;48.540;9.268;2024-01-15T14:17:49;9.43;;;6.47;;
2320;SDS011;15376;48.540;9.268;2024-01-15T14:20:14;11.50;;;7.80;;
2320;SDS011;15376;48.540;9.268;2024-01-15T14:22:40;14.43;;;8.13;;
2320;SDS011;15376;48.540;9.268;2024-01-15T14:25:06;15.60;;;7.70;;
2320;SDS011;15376;48.540;9.268;2024-01-15T14:27:32;12.23;;;7.90;;
2320;SDS011;15376;48.540;9.268;2024-01-15T14:29:57;12.10;;;8.30;;
2320;SDS011;15376;48.540;9.268;2024-01-15T14:32:22;15.17;;;7.67;;
2320;SDS011;15376;48.540;9.268;2024-01-15T14:34:48;13.60;;;9.10;;
2320;SDS011;15376;48.540;9.268;2024-01-15T14:37:14;15.90;;;6.97;;
2320;SDS011;15376;48.540;9.268;2024-01-15T14:39:39;17.80;;;9.00;;
2320;SDS011;15376;48.540;9.268;2024-01-15T14:42:04;10.73;;;7.13;;
2320;SDS011;15376;48.540;9.268;2024-01-15T14:44:30;12.00;;;7.73;;
2320;SDS011;15376;48.540;9.268;2024-01-15T14:46:57;10.03;;;7.37;;
2320;SDS011;15376;48.540;9.268;2024-01-15T14:49:23;14.43;;;9.00;;
2320;SDS011;15376;48.540;9.268;2024-01-15T14:51:49;11.93;;;8.60;;
2320;SDS011;15376;48.540;9.268;2024-01-15T14:54:15;15.73;;;9.43;;
2320;SDS011;15376;48.540;9.268;2024-01-15T14:56:43;19.80;;;8.33;;
2320;SDS011;15376;48.540;9.268;2024-01-15T14:59:08;11.53;;;8.30;;
2320;SDS011;15376;48.540;9.268;2024-01-15T15:01:34;14.37;;;8.60;;
2320;SDS011;15376;48.540;9.268;2024-01-15T15:03:59;11.23;;;8.10;;